Terminal Aerodrome Forecast
Issued by NWS

Home | Current Version | Previous Version | Graphics & Text | Print | Product List | Glossary On
Versions: 1 2 3 4 5 6 7 8 9 10 11 12
000
FTUS43 KFGF 252336
TAFBJI
TAF
KBJI 252336Z 2600/2624 26007KT P6SM SKC
     FM260100 23006KT P6SM FEW140
     FM260200 17004KT P6SM FEW200
     FM260800 VRB03KT P6SM BKN070
     FM261300 22004KT P6SM SCT250
     FM261700 31005KT P6SM SCT250=

USA.gov is the U.S. government's official web portal to all federal, state and local government web resources and services.